createdAt,value
2022-10-08T00:04:44.014Z,9.44
2022-10-08T00:09:48.021Z,9.48
2022-10-08T00:14:52.712Z,9.59
2022-10-08T00:19:58.350Z,9.69
2022-10-08T00:25:01.717Z,9.80
2022-10-08T00:30:09.826Z,9.73
2022-10-08T00:35:13.894Z,9.80
2022-10-08T00:40:18.112Z,9.92
2022-10-08T00:45:23.789Z,9.86
2022-10-08T00:50:34.534Z,9.87
2022-10-08T00:55:43.652Z,9.82
2022-10-08T01:00:50.917Z,9.81
2022-10-08T01:06:04.875Z,9.84
2022-10-08T01:11:21.458Z,9.91
2022-10-08T01:16:33.125Z,9.89
2022-10-08T01:21:44.201Z,10.05
2022-10-08T01:26:57.759Z,10.11
2022-10-08T01:32:09.741Z,10.06
2022-10-08T01:37:18.990Z,10.02
2022-10-08T01:42:24.289Z,10.04
2022-10-08T01:47:32.507Z,10.00
2022-10-08T01:52:41.865Z,9.85
2022-10-08T01:57:47.559Z,9.86
2022-10-08T02:02:55.241Z,9.96
2022-10-08T02:07:59.322Z,9.85
2022-10-08T02:13:02.994Z,9.90
2022-10-08T02:18:15.401Z,9.92
2022-10-08T02:23:25.433Z,9.98
2022-10-08T02:28:36.641Z,9.94
2022-10-08T02:33:45.628Z,10.00
2022-10-08T02:38:54.772Z,9.93
2022-10-08T02:44:01.332Z,9.91
2022-10-08T02:49:11.141Z,9.82
2022-10-08T02:54:14.750Z,9.80
2022-10-08T02:59:21.490Z,9.90
2022-10-08T03:04:31.452Z,10.02
2022-10-08T03:09:41.548Z,10.06
2022-10-08T03:14:49.111Z,10.11
2022-10-08T03:19:54.652Z,10.20
2022-10-08T03:24:58.016Z,10.07
2022-10-08T03:30:02.003Z,10.09
2022-10-08T03:35:09.161Z,10.15
2022-10-08T03:40:13.440Z,10.24
2022-10-08T03:45:17.590Z,10.23
2022-10-08T03:50:23.653Z,10.24
2022-10-08T03:55:27.805Z,10.20
2022-10-08T04:00:31.883Z,10.17
2022-10-08T04:05:37.396Z,10.22
2022-10-08T04:10:41.453Z,10.26
2022-10-08T04:15:45.048Z,10.13
2022-10-08T04:20:50.532Z,10.20
2022-10-08T04:25:55.929Z,10.13
2022-10-08T04:31:01.782Z,10.17
2022-10-08T04:36:12.017Z,10.22
2022-10-08T04:41:18.135Z,10.32
2022-10-08T04:46:23.718Z,10.20
2022-10-08T04:51:30.016Z,10.26
2022-10-08T04:56:35.634Z,10.27
2022-10-08T05:01:39.853Z,10.37
2022-10-08T05:06:45.455Z,10.41
2022-10-08T05:11:49.519Z,10.49
2022-10-08T05:16:53.553Z,10.46
2022-10-08T05:21:58.947Z,10.47
2022-10-08T05:27:03.140Z,10.49
2022-10-08T05:32:07.166Z,10.60
2022-10-08T05:37:12.619Z,10.66
2022-10-08T05:42:15.928Z,10.63
2022-10-08T05:47:20.002Z,10.48
2022-10-08T05:52:24.711Z,10.73
2022-10-08T05:57:29.431Z,10.94
2022-10-08T06:02:32.534Z,11.40
2022-10-08T06:07:38.015Z,11.98
2022-10-08T06:12:41.365Z,13.10
2022-10-08T06:17:45.402Z,14.13
2022-10-08T06:22:50.330Z,14.73
2022-10-08T06:27:54.526Z,15.33
2022-10-08T06:32:57.786Z,17.09
2022-10-08T06:38:03.609Z,17.48
2022-10-08T06:43:08.272Z,18.79
2022-10-08T06:48:12.538Z,22.55
2022-10-08T06:53:17.134Z,27.84
2022-10-08T06:58:21.269Z,32.08
2022-10-08T07:03:24.637Z,32.77
2022-10-08T07:08:30.464Z,34.17
2022-10-08T07:13:34.039Z,34.61
2022-10-08T07:18:39.324Z,33.75
2022-10-08T07:23:44.179Z,34.06
2022-10-08T07:28:52.764Z,34.53
2022-10-08T07:33:56.208Z,33.63
2022-10-08T07:39:03.308Z,34.61
2022-10-08T07:44:07.038Z,34.61
2022-10-08T07:49:11.090Z,36.32
2022-10-08T07:54:19.177Z,34.72
2022-10-08T07:59:23.232Z,35.01
2022-10-08T08:04:27.178Z,34.07
2022-10-08T08:09:32.763Z,32.59
2022-10-08T08:14:37.402Z,31.09
2022-10-08T08:19:41.502Z,29.08
2022-10-08T08:24:46.234Z,27.06
2022-10-08T08:29:50.312Z,24.71
2022-10-08T08:34:53.650Z,22.85
2022-10-08T08:39:59.028Z,21.68
2022-10-08T08:45:04.841Z,20.36
2022-10-08T08:50:21.416Z,19.57
2022-10-08T08:55:37.354Z,18.42
2022-10-08T09:00:45.433Z,18.66
2022-10-08T09:05:54.367Z,18.96
2022-10-08T09:11:02.293Z,18.13
2022-10-08T09:16:05.816Z,18.18
2022-10-08T09:21:09.845Z,17.92
2022-10-08T09:26:19.704Z,18.17
2022-10-08T09:31:28.258Z,17.87
2022-10-08T09:36:35.904Z,17.69
2022-10-08T09:41:41.417Z,17.28
2022-10-08T09:46:46.217Z,17.51
2022-10-08T09:51:52.258Z,17.44
2022-10-08T09:57:00.744Z,17.50
2022-10-08T10:02:10.324Z,17.00
2022-10-08T10:07:14.507Z,16.97
2022-10-08T10:12:28.105Z,16.87
2022-10-08T10:17:38.385Z,16.85
2022-10-08T10:22:47.877Z,16.72
2022-10-08T10:27:56.937Z,16.76
2022-10-08T10:33:05.859Z,16.80
2022-10-08T10:38:15.390Z,16.42
2022-10-08T10:43:39.236Z,16.28
2022-10-08T10:48:43.336Z,16.37
2022-10-08T10:54:00.249Z,16.34
2022-10-08T10:59:45.696Z,16.28
2022-10-08T11:05:01.910Z,16.26
2022-10-08T11:10:17.623Z,15.85
2022-10-08T11:15:30.543Z,15.90
2022-10-08T11:20:44.977Z,15.76
2022-10-08T11:26:20.512Z,15.76
2022-10-08T11:31:33.358Z,15.82
2022-10-08T11:36:43.052Z,16.02
2022-10-08T11:41:55.049Z,15.93
2022-10-08T11:47:32.483Z,16.08
2022-10-08T11:52:37.374Z,16.09
2022-10-08T11:58:06.538Z,15.89
2022-10-08T12:03:08.301Z,16.15
2022-10-08T12:08:49.690Z,15.94
2022-10-08T12:14:27.802Z,16.29
2022-10-08T12:20:07.914Z,16.38
2022-10-08T12:25:44.400Z,15.84
2022-10-08T12:30:50.637Z,15.96
2022-10-08T12:36:02.706Z,15.94
2022-10-08T12:41:18.242Z,15.86
2022-10-08T12:46:36.750Z,15.67
2022-10-08T12:51:47.836Z,15.67
2022-10-08T12:56:53.328Z,15.58
2022-10-08T13:01:59.046Z,15.23
2022-10-08T13:07:21.003Z,15.29
2022-10-08T13:12:24.899Z,15.29
2022-10-08T13:17:31.215Z,15.17
2022-10-08T13:22:34.709Z,15.12
2022-10-08T13:27:38.026Z,14.95
2022-10-08T13:32:42.863Z,14.83
2022-10-08T13:37:52.291Z,14.74
2022-10-08T13:42:58.529Z,14.67
2022-10-08T13:48:03.554Z,14.64
2022-10-08T13:53:06.922Z,14.56
2022-10-08T13:58:13.107Z,14.60
2022-10-08T14:03:17.973Z,14.39
2022-10-08T14:08:26.383Z,14.32
2022-10-08T14:13:29.923Z,14.15
2022-10-08T14:18:34.726Z,14.12
2022-10-08T14:23:38.119Z,13.88
2022-10-08T14:28:41.559Z,13.71
2022-10-08T14:33:46.960Z,13.53
2022-10-08T14:38:50.325Z,13.29
2022-10-08T14:43:53.715Z,13.18
2022-10-08T14:48:58.668Z,12.99
2022-10-08T14:54:02.018Z,12.87
2022-10-08T14:59:05.866Z,12.70
2022-10-08T15:04:14.977Z,12.51
2022-10-08T15:09:18.448Z,12.37
2022-10-08T15:14:21.973Z,12.23
2022-10-08T15:19:26.753Z,12.09
2022-10-08T15:24:29.837Z,12.06
2022-10-08T15:29:33.275Z,11.86
2022-10-08T15:34:38.009Z,11.80
2022-10-08T15:39:41.134Z,11.70
2022-10-08T15:44:46.686Z,11.55
2022-10-08T15:49:51.467Z,11.45
2022-10-08T15:54:54.863Z,11.38
2022-10-08T15:59:58.936Z,11.30
2022-10-08T16:05:03.681Z,11.22
2022-10-08T16:10:07.414Z,11.07
2022-10-08T16:15:11.407Z,10.99
2022-10-08T16:20:16.352Z,10.92
2022-10-08T16:25:19.726Z,10.88
2022-10-08T16:30:23.144Z,10.81
2022-10-08T16:35:28.089Z,10.79
2022-10-08T16:40:31.184Z,10.74
2022-10-08T16:45:37.480Z,10.66
2022-10-08T16:50:43.097Z,10.62
2022-10-08T16:55:46.429Z,10.58
2022-10-08T17:00:49.762Z,10.53
2022-10-08T17:05:54.628Z,10.55
2022-10-08T17:10:57.750Z,10.50
2022-10-08T17:16:02.441Z,10.48
2022-10-08T17:21:08.250Z,10.48
2022-10-08T17:26:13.682Z,10.33
2022-10-08T17:31:19.353Z,10.44
2022-10-08T17:36:26.631Z,10.38
2022-10-08T17:41:32.426Z,10.35
2022-10-08T17:46:37.572Z,10.35
2022-10-08T17:51:42.546Z,10.36
2022-10-08T17:56:45.866Z,10.36
2022-10-08T18:01:49.410Z,10.40
2022-10-08T18:06:58.670Z,10.55
2022-10-08T18:12:06.367Z,10.55
2022-10-08T18:17:09.823Z,10.65
2022-10-08T18:22:14.581Z,10.66
2022-10-08T18:27:17.954Z,10.63
2022-10-08T18:32:21.286Z,10.62
2022-10-08T18:37:26.441Z,10.60
2022-10-08T18:42:29.760Z,10.53
2022-10-08T18:47:33.114Z,10.41
2022-10-08T18:52:37.834Z,10.37
2022-10-08T18:57:41.154Z,10.24
2022-10-08T19:02:44.581Z,10.15
2022-10-08T19:07:49.515Z,10.07
2022-10-08T19:12:52.649Z,10.08
2022-10-08T19:17:56.068Z,9.97
2022-10-08T19:23:01.137Z,9.97
2022-10-08T19:28:04.521Z,9.91
2022-10-08T19:33:08.234Z,9.85
2022-10-08T19:38:13.019Z,9.88
2022-10-08T19:43:16.225Z,9.85
2022-10-08T19:48:19.643Z,9.73
2022-10-08T19:53:24.555Z,9.66
2022-10-08T19:58:27.920Z,9.64
2022-10-08T20:03:31.228Z,9.56
2022-10-08T20:08:36.599Z,9.57
2022-10-08T20:13:41.120Z,9.49
2022-10-08T20:18:49.990Z,9.49
2022-10-08T20:23:55.202Z,9.46
2022-10-08T20:29:02.218Z,9.44
2022-10-08T20:34:08.230Z,9.46
2022-10-08T20:39:14.097Z,9.42
2022-10-08T20:44:17.965Z,9.39
2022-10-08T20:49:21.352Z,9.37
2022-10-08T20:54:26.296Z,9.45
2022-10-08T20:59:29.655Z,9.41
2022-10-08T21:04:33.273Z,9.36
2022-10-08T21:09:37.979Z,9.42
2022-10-08T21:14:41.362Z,9.28
2022-10-08T21:19:44.732Z,9.36
2022-10-08T21:24:49.545Z,9.31
2022-10-08T21:29:52.979Z,9.27
2022-10-08T21:34:56.307Z,9.22
2022-10-08T21:40:01.248Z,9.26
2022-10-08T21:45:07.552Z,9.18
2022-10-08T21:50:11.297Z,9.11
2022-10-08T21:55:16.450Z,9.16
2022-10-08T22:00:19.827Z,9.23
2022-10-08T22:05:26.532Z,9.22
2022-10-08T22:10:33.834Z,9.20
2022-10-08T22:15:37.202Z,9.11
2022-10-08T22:20:40.564Z,9.12
2022-10-08T22:25:53.623Z,9.08
2022-10-08T22:30:59.497Z,9.09
2022-10-08T22:36:03.534Z,9.05
2022-10-08T22:41:11.615Z,9.00
2022-10-08T22:46:18.074Z,8.96
2022-10-08T22:51:22.572Z,8.93
2022-10-08T22:56:29.331Z,8.89
2022-10-08T23:01:32.687Z,8.86
2022-10-08T23:06:36.253Z,8.81
2022-10-08T23:11:41.296Z,8.81
2022-10-08T23:16:44.707Z,8.77
2022-10-08T23:21:49.510Z,8.73
2022-10-08T23:26:54.334Z,8.69
2022-10-08T23:31:57.682Z,8.56
2022-10-08T23:37:01.015Z,8.54
2022-10-08T23:42:05.869Z,8.54
2022-10-08T23:47:08.950Z,8.58
2022-10-08T23:52:12.394Z,8.49
2022-10-08T23:57:17.123Z,8.54
